Pellegrini, Argentina
Current Conditions -  °F | °C
As of 12:00 PM on Friday 31 Oct 2014 (Local Time) from SAOC Reporting Station
Broken Clouds Broken Clouds  
Wind Chill: 55°   Ceiling: 2000
Heat Index: 55°   Visibility: 6mi
Dew Point: 39°   Wind: 17mph
Humidity: 54%   Direction: 180°S
Pressure: 30.03"   Gusts: NA
Location:  36.27°S, 63.15°W
Report Text: SAOC 311500Z 18015KT 9999 RELAMPAGOS BKN020 FEW040CB 13/04 Q1017
Loading
Personal Weather Stations






























Interactive Weather Map New forecast layout! Learn more

10-Day Weather Forecast

Advertisements
Track Severe Weather on mobile